In Rescue
 
Open Full Screen Window  High Contrast Mode
Wind Gusting 23 knots
18
October 25, 2021 12:40 PM PDT
Weather Information
Wind Direction
  240 °
Wind Speed
  18 kt (21 mph)
Wind Gust
  23 kt (26 mph)
Altimeter
29.86 in
Visibility
10 SM
Temperature
17° C
63° F
Dewpoint
10° C
50° F
Humidity
64%
1hr Rain Fall
00.09 in.
24hr Rain Fall
01.97 in.
Sky Condition
Scattered @ 7,500 ft
Few @ 3,500 ft
Few @ 3,000 ft
VFR

METAR KCVH 251940Z AUTO 24018G23KT 10SM FEW030 FEW035 SCT075 17/10 A2986 RMK A01 P0009

FAA Disclaimer: The data displayed is for advisory purposes only and is not to be used for flight planning or operations.